EmailTwitter


Observations de surface / Québec / LFRB

Régions: Québec | Canada | États-Unis | Europe | France | UK | Elsewhere
Station
Affichage
Infos & localisation pour LFRB | Aide pour décoder les METARs

Observations prises le 2017-05-26 à 01H30 UTC à BREST/GUIPAVAS, FR (LFRB)

Température: 20.0 Celsius

Point de rosée: 14.0 Celsius

Humidité relative: 68%

Vents: Sud-est à 19 km/h ou 10 noeuds.

Pression au niveau moyen de la mer: 101.40 kilopascals.

Observation METAR:

LFRB 260130Z AUTO 13010KT CAVOK 20/14 Q1014 NOSIG=